createdAt,value
2018-06-24T00:00:55.466Z,10.40
2018-06-24T00:01:55.407Z,9.90
2018-06-24T00:02:55.356Z,12.40
2018-06-24T00:03:55.275Z,10.60
2018-06-24T00:04:55.214Z,8.60
2018-06-24T00:05:55.150Z,10.50
2018-06-24T00:06:55.089Z,11.00
2018-06-24T00:07:55.024Z,10.00
2018-06-24T00:08:54.953Z,11.90
2018-06-24T00:09:54.897Z,10.10
2018-06-24T00:10:54.830Z,9.90
2018-06-24T00:11:54.778Z,13.00
2018-06-24T00:12:54.706Z,8.10
2018-06-24T00:13:54.661Z,10.50
2018-06-24T00:14:54.585Z,10.30
2018-06-24T00:15:54.513Z,13.00
2018-06-24T00:16:54.468Z,9.50
2018-06-24T00:17:54.385Z,8.90
2018-06-24T00:18:54.320Z,10.00
2018-06-24T00:19:54.262Z,7.90
2018-06-24T00:20:54.194Z,12.00
2018-06-24T00:21:54.120Z,10.80
2018-06-24T00:22:54.064Z,10.20
2018-06-24T00:23:54.008Z,12.50
2018-06-24T00:24:53.935Z,6.30
2018-06-24T00:25:53.871Z,8.80
2018-06-24T00:26:53.806Z,9.80
2018-06-24T00:27:53.752Z,9.60
2018-06-24T00:28:53.678Z,10.00
2018-06-24T00:29:53.614Z,10.50
2018-06-24T00:30:53.556Z,8.50
2018-06-24T00:31:53.489Z,8.70
2018-06-24T00:32:53.425Z,7.70
2018-06-24T00:33:53.365Z,9.40
2018-06-24T00:34:53.297Z,6.70
2018-06-24T00:35:53.233Z,10.80
2018-06-24T00:36:53.181Z,11.10
2018-06-24T00:37:53.104Z,11.10
2018-06-24T00:38:53.042Z,9.20
2018-06-24T00:39:52.979Z,6.20
2018-06-24T00:40:52.914Z,10.80
2018-06-24T00:41:52.849Z,9.70
2018-06-24T00:42:52.783Z,7.50
2018-06-24T00:43:52.724Z,8.90
2018-06-24T00:44:52.654Z,9.90
2018-06-24T00:45:52.605Z,6.30
2018-06-24T00:46:52.533Z,7.60
2018-06-24T00:47:52.467Z,8.20
2018-06-24T00:48:52.410Z,7.80
2018-06-24T00:49:52.336Z,6.20
2018-06-24T00:50:52.277Z,6.70
2018-06-24T00:51:52.208Z,8.70
2018-06-24T00:52:52.146Z,7.60
2018-06-24T00:53:52.083Z,7.40
2018-06-24T00:54:52.021Z,7.20
2018-06-24T00:55:51.951Z,6.90
2018-06-24T00:56:51.894Z,7.40
2018-06-24T00:57:51.823Z,5.60
2018-06-24T00:58:51.765Z,7.00
2018-06-24T00:59:51.705Z,10.90
2018-06-24T01:00:51.632Z,10.20
2018-06-24T01:01:51.569Z,11.40
2018-06-24T01:02:51.503Z,6.40
2018-06-24T01:03:51.441Z,7.40
2018-06-24T01:04:51.375Z,16.50
2018-06-24T01:05:51.339Z,12.70
2018-06-24T01:06:51.268Z,8.70
2018-06-24T01:07:51.184Z,11.10
2018-06-24T01:08:51.124Z,12.10
2018-06-24T01:09:51.063Z,8.40
2018-06-24T01:10:50.991Z,7.00
2018-06-24T01:11:50.931Z,8.60
2018-06-24T01:12:50.863Z,7.30
2018-06-24T01:13:50.799Z,7.90
2018-06-24T01:14:50.738Z,9.40
2018-06-24T01:15:50.670Z,12.30
2018-06-24T01:16:50.617Z,8.40
2018-06-24T01:17:50.543Z,8.00
2018-06-24T01:18:50.482Z,10.60
2018-06-24T01:19:50.429Z,12.00
2018-06-24T01:20:50.352Z,10.40
2018-06-24T01:21:50.300Z,10.70
2018-06-24T01:22:50.229Z,10.30
2018-06-24T01:23:50.161Z,8.80
2018-06-24T01:24:50.099Z,6.10
2018-06-24T01:25:50.033Z,10.20
2018-06-24T01:26:49.969Z,12.90
2018-06-24T01:27:49.905Z,9.40
2018-06-24T01:28:49.847Z,9.20
2018-06-24T01:29:49.781Z,7.30
2018-06-24T01:30:49.713Z,11.40
2018-06-24T01:31:49.649Z,8.60
2018-06-24T01:32:49.583Z,7.60
2018-06-24T01:33:49.518Z,8.40
2018-06-24T01:34:49.455Z,8.00
2018-06-24T01:35:49.401Z,10.50
2018-06-24T01:36:49.328Z,6.90
2018-06-24T01:37:49.269Z,7.10
2018-06-24T01:38:49.198Z,7.70
2018-06-24T01:39:49.132Z,6.70
2018-06-24T01:40:49.073Z,11.10
2018-06-24T01:41:49.007Z,8.10
2018-06-24T01:42:48.953Z,9.40
2018-06-24T01:43:48.878Z,7.70
2018-06-24T01:44:48.826Z,6.90
2018-06-24T01:45:48.748Z,6.00
2018-06-24T01:46:48.686Z,5.10
2018-06-24T01:47:48.622Z,5.60
2018-06-24T01:48:48.568Z,8.60
2018-06-24T01:49:48.496Z,7.20
2018-06-24T01:50:48.437Z,8.80
2018-06-24T01:51:48.374Z,9.40
2018-06-24T01:52:48.301Z,6.50
2018-06-24T01:53:48.234Z,6.90
2018-06-24T01:54:48.180Z,6.80
2018-06-24T01:55:48.122Z,7.60
2018-06-24T01:56:48.046Z,6.70
2018-06-24T01:57:47.983Z,6.90
2018-06-24T01:58:47.917Z,10.80
2018-06-24T01:59:47.848Z,6.70
2018-06-24T02:00:47.797Z,7.50
2018-06-24T02:01:47.728Z,8.50
2018-06-24T02:02:47.664Z,8.60
2018-06-24T02:03:47.605Z,8.10
2018-06-24T02:04:47.541Z,6.70
2018-06-24T02:05:47.470Z,7.50
2018-06-24T02:06:47.400Z,8.70
2018-06-24T02:07:47.338Z,8.80
2018-06-24T02:08:47.274Z,8.30
2018-06-24T02:09:47.214Z,7.80
2018-06-24T02:10:47.152Z,8.80
2018-06-24T02:11:47.084Z,8.30
2018-06-24T02:12:47.019Z,7.70
2018-06-24T02:13:46.964Z,5.40
2018-06-24T02:14:46.893Z,8.30
2018-06-24T02:15:46.827Z,7.80
2018-06-24T02:16:46.762Z,8.50
2018-06-24T02:17:46.697Z,7.80
2018-06-24T02:18:46.637Z,7.30
2018-06-24T02:19:46.568Z,8.90
2018-06-24T02:20:46.507Z,8.40
2018-06-24T02:21:46.445Z,7.60
2018-06-24T02:22:46.383Z,7.20
2018-06-24T02:23:46.317Z,9.40
2018-06-24T02:24:46.247Z,9.90
2018-06-24T02:25:46.186Z,8.60
2018-06-24T02:26:46.126Z,7.30
2018-06-24T02:27:46.063Z,7.40
2018-06-24T02:28:45.993Z,7.60
2018-06-24T02:29:45.928Z,4.10
2018-06-24T02:30:45.867Z,7.40
2018-06-24T02:31:45.807Z,5.90
2018-06-24T02:32:45.737Z,6.20
2018-06-24T02:33:45.689Z,8.60
2018-06-24T02:34:45.619Z,7.60
2018-06-24T02:35:45.550Z,12.00
2018-06-24T02:36:45.481Z,6.30
2018-06-24T02:37:45.417Z,8.50
2018-06-24T02:38:45.356Z,7.50
2018-06-24T02:39:45.298Z,10.20
2018-06-24T02:40:45.228Z,7.70
2018-06-24T02:41:45.166Z,8.90
2018-06-24T02:42:45.093Z,5.80
2018-06-24T02:43:45.035Z,5.80
2018-06-24T02:44:44.976Z,9.70
2018-06-24T02:45:44.908Z,8.40
2018-06-24T02:46:44.845Z,10.80
2018-06-24T02:47:44.785Z,8.40
2018-06-24T02:48:44.716Z,8.60
2018-06-24T02:49:44.648Z,7.70
2018-06-24T02:50:44.584Z,5.70
2018-06-24T02:51:44.523Z,5.90
2018-06-24T02:52:44.466Z,7.30
2018-06-24T02:53:44.444Z,6.50
2018-06-24T02:54:44.343Z,6.40
2018-06-24T02:55:44.264Z,7.40
2018-06-24T02:56:44.202Z,8.70
2018-06-24T02:57:44.138Z,7.10
2018-06-24T02:58:44.083Z,7.00
2018-06-24T02:59:44.014Z,7.20
2018-06-24T03:00:43.945Z,9.80
2018-06-24T03:01:43.884Z,8.20
2018-06-24T03:02:43.818Z,8.40
2018-06-24T03:03:43.748Z,7.00
2018-06-24T03:04:43.693Z,7.90
2018-06-24T03:05:43.632Z,9.30
2018-06-24T03:06:43.562Z,10.30
2018-06-24T03:07:43.500Z,7.90
2018-06-24T03:08:43.432Z,6.90
2018-06-24T03:09:43.373Z,11.50
2018-06-24T03:10:43.308Z,8.50
2018-06-24T03:11:43.243Z,8.50
2018-06-24T03:12:43.181Z,9.80
2018-06-24T03:13:43.116Z,14.30
2018-06-24T03:14:43.052Z,11.80
2018-06-24T03:15:43.049Z,16.00
2018-06-24T03:16:42.927Z,11.10
2018-06-24T03:17:42.872Z,15.10
2018-06-24T03:18:42.805Z,12.40
2018-06-24T03:19:42.730Z,11.30
2018-06-24T03:20:42.668Z,12.10
2018-06-24T03:21:42.612Z,13.00
2018-06-24T03:22:42.540Z,11.60
2018-06-24T03:23:42.481Z,13.20
2018-06-24T03:24:42.414Z,14.50
2018-06-24T03:25:42.352Z,15.20
2018-06-24T03:26:42.285Z,18.20
2018-06-24T03:27:42.229Z,15.80
2018-06-24T03:28:42.153Z,13.80
2018-06-24T03:29:42.091Z,12.90
2018-06-24T03:30:42.034Z,13.20
2018-06-24T03:31:41.975Z,21.00
2018-06-24T03:32:41.902Z,16.20
2018-06-24T03:33:41.835Z,16.40
2018-06-24T03:34:41.768Z,13.80
2018-06-24T03:35:41.708Z,19.00
2018-06-24T03:36:41.646Z,13.70
2018-06-24T03:37:41.583Z,15.20
2018-06-24T03:38:41.518Z,10.30
2018-06-24T03:39:41.454Z,12.20
2018-06-24T03:40:41.389Z,18.20
2018-06-24T03:41:41.325Z,17.70
2018-06-24T03:42:41.266Z,19.60
2018-06-24T03:43:41.203Z,17.50
2018-06-24T03:44:41.142Z,22.20
2018-06-24T03:45:41.081Z,17.70
2018-06-24T03:46:41.003Z,17.90
2018-06-24T03:47:40.944Z,15.20
2018-06-24T03:48:40.889Z,23.70
2018-06-24T03:49:40.816Z,18.30
2018-06-24T03:50:40.753Z,14.70
2018-06-24T03:51:40.688Z,17.70
2018-06-24T03:52:40.620Z,23.40
2018-06-24T03:53:40.557Z,20.30
2018-06-24T03:54:40.495Z,19.30
2018-06-24T03:55:40.431Z,18.60
2018-06-24T03:56:40.368Z,22.70
2018-06-24T03:57:40.310Z,17.90
2018-06-24T03:58:40.249Z,20.10
2018-06-24T03:59:40.186Z,17.90
2018-06-24T04:00:40.109Z,21.00
2018-06-24T04:01:40.043Z,16.50
2018-06-24T04:02:39.984Z,18.90
2018-06-24T04:03:39.919Z,16.50
2018-06-24T04:04:39.855Z,12.50
2018-06-24T04:05:39.790Z,19.30
2018-06-24T04:06:39.726Z,16.50
2018-06-24T04:07:39.662Z,19.00
2018-06-24T04:08:39.600Z,19.90
2018-06-24T04:09:39.538Z,16.50
2018-06-24T04:10:39.477Z,15.40
2018-06-24T04:11:39.417Z,19.80
2018-06-24T04:12:39.342Z,23.10
2018-06-24T04:13:39.277Z,20.00
2018-06-24T04:14:39.211Z,19.50
2018-06-24T04:15:39.158Z,16.10
2018-06-24T04:16:39.088Z,18.70
2018-06-24T04:17:39.025Z,18.80
2018-06-24T04:18:38.960Z,15.80
2018-06-24T04:19:38.895Z,19.90
2018-06-24T04:20:38.834Z,20.10
2018-06-24T04:21:38.766Z,14.30
2018-06-24T04:22:38.711Z,19.40
2018-06-24T04:23:38.647Z,16.10
2018-06-24T04:24:38.585Z,19.10
2018-06-24T04:25:38.522Z,20.60
2018-06-24T04:26:38.445Z,17.90
2018-06-24T04:27:38.387Z,18.70
2018-06-24T04:28:38.324Z,14.20
2018-06-24T04:29:38.259Z,16.90
2018-06-24T04:30:38.194Z,16.90
2018-06-24T04:31:38.133Z,17.90
2018-06-24T04:32:38.066Z,15.10
2018-06-24T04:33:37.999Z,17.70
2018-06-24T04:34:37.942Z,16.00
2018-06-24T04:35:37.876Z,21.00
2018-06-24T04:36:37.815Z,15.90
2018-06-24T04:37:37.748Z,16.90
2018-06-24T04:38:37.680Z,23.60
2018-06-24T04:39:37.621Z,16.80
2018-06-24T04:40:37.561Z,13.60
2018-06-24T04:41:37.497Z,16.80
2018-06-24T04:42:37.432Z,19.10
2018-06-24T04:43:37.367Z,16.50
2018-06-24T04:44:37.301Z,13.40
2018-06-24T04:45:37.240Z,16.20
2018-06-24T04:46:37.174Z,18.70
2018-06-24T04:47:37.111Z,19.90
2018-06-24T04:48:37.048Z,10.70
2018-06-24T04:49:36.988Z,15.20
2018-06-24T04:50:36.923Z,14.50
2018-06-24T04:51:36.907Z,17.80
2018-06-24T04:52:36.794Z,18.80
2018-06-24T04:53:36.736Z,18.50
2018-06-24T04:54:36.667Z,23.50
2018-06-24T04:55:36.598Z,16.70
2018-06-24T04:56:36.539Z,12.90
2018-06-24T04:57:36.484Z,22.10
2018-06-24T04:58:36.412Z,20.10
2018-06-24T04:59:36.347Z,20.20
2018-06-24T05:00:36.286Z,18.00
2018-06-24T05:01:36.219Z,20.30
2018-06-24T05:02:36.174Z,16.10
2018-06-24T05:03:36.096Z,16.30
2018-06-24T05:04:36.027Z,15.70
2018-06-24T05:05:35.968Z,15.70
2018-06-24T05:06:36.014Z,16.50
2018-06-24T05:07:35.841Z,20.20
2018-06-24T05:08:35.774Z,18.30
2018-06-24T05:09:35.714Z,19.80
2018-06-24T05:10:35.651Z,15.40
2018-06-24T05:11:35.581Z,17.90
2018-06-24T05:12:35.527Z,14.70
2018-06-24T05:13:35.461Z,19.30
2018-06-24T05:14:35.395Z,15.90
2018-06-24T05:15:35.333Z,18.30
2018-06-24T05:16:35.263Z,15.50
2018-06-24T05:17:35.206Z,23.40
2018-06-24T05:18:35.138Z,11.30
2018-06-24T05:19:35.077Z,9.50
2018-06-24T05:20:35.022Z,12.40
2018-06-24T05:21:34.953Z,19.00
2018-06-24T05:22:34.885Z,18.50
2018-06-24T05:23:34.827Z,15.30
2018-06-24T05:24:34.756Z,17.80
2018-06-24T05:25:34.696Z,14.90
2018-06-24T05:26:34.637Z,16.10
2018-06-24T05:27:34.609Z,16.90
2018-06-24T05:28:34.505Z,15.90
2018-06-24T05:29:34.443Z,21.20
2018-06-24T05:30:34.375Z,16.10
2018-06-24T05:31:34.315Z,19.00
2018-06-24T05:32:34.250Z,20.30
2018-06-24T05:33:34.186Z,15.70
2018-06-24T05:34:34.124Z,16.80
2018-06-24T05:35:34.061Z,20.60
2018-06-24T05:36:33.994Z,18.80
2018-06-24T05:37:33.940Z,17.10
2018-06-24T05:38:33.874Z,13.30
2018-06-24T05:39:33.807Z,15.00
2018-06-24T05:40:33.744Z,13.00
2018-06-24T05:41:33.680Z,16.50
2018-06-24T05:42:33.619Z,17.30
2018-06-24T05:43:33.555Z,18.80
2018-06-24T05:44:33.493Z,16.70
2018-06-24T05:45:33.431Z,15.90
2018-06-24T05:46:33.365Z,15.50
2018-06-24T05:47:33.307Z,12.20
2018-06-24T05:48:33.238Z,17.30
2018-06-24T05:49:33.169Z,13.50
2018-06-24T05:50:33.112Z,12.30
2018-06-24T05:51:33.055Z,18.50
2018-06-24T05:52:32.987Z,16.60
2018-06-24T05:53:32.928Z,18.30
2018-06-24T05:54:32.860Z,18.30
2018-06-24T05:55:32.801Z,17.70
2018-06-24T05:56:32.738Z,15.90
2018-06-24T05:57:32.676Z,15.60
2018-06-24T05:58:32.627Z,13.70
2018-06-24T05:59:32.547Z,15.00
2018-06-24T06:00:32.483Z,12.40
2018-06-24T06:01:32.421Z,12.90
2018-06-24T06:02:32.359Z,17.20
2018-06-24T06:03:32.299Z,15.80
2018-06-24T06:04:32.235Z,17.00
2018-06-24T06:05:32.167Z,17.40
2018-06-24T06:06:32.113Z,12.60
2018-06-24T06:07:32.046Z,14.50
2018-06-24T06:08:31.983Z,16.50
2018-06-24T06:09:31.922Z,16.80
2018-06-24T06:10:31.857Z,11.90
2018-06-24T06:11:31.794Z,18.10
2018-06-24T06:12:31.733Z,14.00
2018-06-24T06:13:31.703Z,11.50
2018-06-24T06:14:31.604Z,15.50
2018-06-24T06:15:31.543Z,18.90
2018-06-24T06:16:31.481Z,14.90
2018-06-24T06:17:31.418Z,16.30
2018-06-24T06:18:31.359Z,16.40
2018-06-24T06:19:31.294Z,16.40
2018-06-24T06:20:31.229Z,16.60
2018-06-24T06:21:31.174Z,16.00
2018-06-24T06:22:31.111Z,9.60
2018-06-24T06:23:31.051Z,14.60
2018-06-24T06:24:31.014Z,17.50
2018-06-24T06:25:30.916Z,15.30
2018-06-24T06:26:30.864Z,12.30
2018-06-24T06:27:30.795Z,17.60
2018-06-24T06:28:30.727Z,13.00
2018-06-24T06:29:30.677Z,12.40
2018-06-24T06:30:30.601Z,10.90
2018-06-24T06:31:30.537Z,13.10
2018-06-24T06:32:30.477Z,22.10
2018-06-24T06:33:30.414Z,14.90
2018-06-24T06:34:30.352Z,9.60
2018-06-24T06:35:30.290Z,18.90
2018-06-24T06:36:30.225Z,16.60
2018-06-24T06:37:30.160Z,16.50
2018-06-24T06:38:30.097Z,10.80
2018-06-24T06:39:30.032Z,18.00
2018-06-24T06:40:29.979Z,16.50
2018-06-24T06:41:29.915Z,19.20
2018-06-24T06:42:29.848Z,15.60
2018-06-24T06:43:29.796Z,12.50
2018-06-24T06:44:29.721Z,19.80
2018-06-24T06:45:29.861Z,14.30
2018-06-24T06:46:29.594Z,17.30
2018-06-24T06:47:29.533Z,16.60
2018-06-24T06:48:29.475Z,15.90
2018-06-24T06:49:29.403Z,14.90
2018-06-24T06:50:29.342Z,15.30
2018-06-24T06:51:29.277Z,18.10
2018-06-24T06:52:29.218Z,17.10
2018-06-24T06:53:29.154Z,14.70
2018-06-24T06:54:29.092Z,10.60
2018-06-24T06:55:29.026Z,19.80
2018-06-24T06:56:28.964Z,14.80
2018-06-24T06:57:28.900Z,15.60
2018-06-24T06:58:36.467Z,24.20
2018-06-24T07:00:23.741Z,18.90
2018-06-24T07:01:23.042Z,18.30
2018-06-24T07:03:17.374Z,20.00
2018-06-24T07:04:17.237Z,19.60
2018-06-24T07:06:10.543Z,19.90
2018-06-24T07:07:10.446Z,14.40
2018-06-24T07:09:03.794Z,19.20
2018-06-24T07:10:03.675Z,13.80
2018-06-24T07:11:57.952Z,20.20
2018-06-24T07:12:57.911Z,14.90
2018-06-24T07:14:52.140Z,19.80
2018-06-24T07:15:52.045Z,21.20
2018-06-24T07:17:46.331Z,14.70
2018-06-24T07:18:46.240Z,13.00
2018-06-24T07:20:40.534Z,19.70
2018-06-24T07:21:40.445Z,16.00
2018-06-24T07:23:34.726Z,21.20
2018-06-24T07:24:34.636Z,16.10
2018-06-24T07:26:28.921Z,20.40
2018-06-24T07:27:28.827Z,23.70
2018-06-24T07:29:22.132Z,18.70
2018-06-24T07:30:22.035Z,17.90
2018-06-24T07:32:15.354Z,21.30
2018-06-24T07:33:15.332Z,24.20
2018-06-24T07:35:09.537Z,19.40
2018-06-24T07:36:17.085Z,20.40
2018-06-24T07:38:12.365Z,21.60
2018-06-24T07:39:11.304Z,19.00
2018-06-24T07:41:06.551Z,20.70
2018-06-24T07:42:05.476Z,20.60
2018-06-24T07:43:59.764Z,20.30
2018-06-24T07:44:52.033Z,22.30
2018-06-24T07:46:46.437Z,17.50
2018-06-24T07:47:46.236Z,16.00
2018-06-24T07:49:40.548Z,22.80
2018-06-24T07:50:40.426Z,19.50
2018-06-24T07:52:33.732Z,16.20
2018-06-24T07:53:33.631Z,14.20
2018-06-24T07:55:27.209Z,13.30
2018-06-24T07:56:34.728Z,16.70
2018-06-24T07:58:29.764Z,16.10
2018-06-24T07:59:28.944Z,14.40
2018-06-24T08:01:15.594Z,11.10
2018-06-24T08:02:15.499Z,14.30
2018-06-24T08:04:09.833Z,23.50
2018-06-24T08:05:09.695Z,17.50
2018-06-24T08:07:02.988Z,13.30
2018-06-24T08:08:02.902Z,13.70
2018-06-24T08:09:57.199Z,15.90
2018-06-24T08:10:57.107Z,14.90
2018-06-24T08:12:51.406Z,15.40
2018-06-24T08:13:51.308Z,17.70
2018-06-24T08:15:45.595Z,13.90
2018-06-24T08:16:45.502Z,14.60
2018-06-24T08:18:39.784Z,19.30
2018-06-24T08:19:39.686Z,12.90
2018-06-24T08:21:33.977Z,12.40
2018-06-24T08:22:33.886Z,16.70
2018-06-24T08:24:28.188Z,14.10
2018-06-24T08:25:28.097Z,12.10
2018-06-24T08:27:21.406Z,12.00
2018-06-24T08:28:21.306Z,15.00
2018-06-24T08:30:15.598Z,15.10
2018-06-24T08:31:15.497Z,16.50
2018-06-24T08:33:08.801Z,14.20
2018-06-24T08:34:08.708Z,15.70
2018-06-24T08:36:03.116Z,14.40
2018-06-24T08:37:02.910Z,13.80
2018-06-24T08:38:57.249Z,13.70
2018-06-24T08:39:57.102Z,11.50
2018-06-24T08:41:51.402Z,14.60
2018-06-24T08:42:51.304Z,11.90
2018-06-24T08:44:45.609Z,8.40
2018-06-24T08:45:45.504Z,6.60
2018-06-24T08:47:39.794Z,12.60
2018-06-24T08:48:39.698Z,14.20
2018-06-24T08:50:34.006Z,12.00
2018-06-24T08:51:33.912Z,15.20
2018-06-24T08:53:27.202Z,11.60
2018-06-24T08:54:27.178Z,12.90
2018-06-24T08:56:21.410Z,10.80
2018-06-24T08:57:21.316Z,10.80
2018-06-24T08:59:15.614Z,14.10
2018-06-24T09:00:15.517Z,10.70
2018-06-24T09:02:09.804Z,10.10
2018-06-24T09:03:09.706Z,10.00
2018-06-24T09:05:04.018Z,17.10
2018-06-24T09:06:03.921Z,14.00
2018-06-24T09:07:58.240Z,13.60
2018-06-24T09:08:58.128Z,18.70
2018-06-24T09:10:52.432Z,17.50
2018-06-24T09:15:02.280Z,11.70
2018-06-24T09:16:35.605Z,14.20
2018-06-24T09:17:35.471Z,14.80
2018-06-24T09:19:28.770Z,14.00
2018-06-24T09:20:28.689Z,12.80
2018-06-24T09:22:21.989Z,12.20
2018-06-24T09:23:21.892Z,10.70
2018-06-24T09:25:16.174Z,11.00
2018-06-24T09:26:16.080Z,12.70
2018-06-24T09:28:10.385Z,9.90
2018-06-24T09:29:10.280Z,11.00
2018-06-24T09:31:03.589Z,11.80
2018-06-24T09:32:03.492Z,15.00
2018-06-24T09:33:56.808Z,11.40
2018-06-24T09:34:56.726Z,9.90
2018-06-24T09:36:50.012Z,7.80
2018-06-24T09:37:49.920Z,10.00
2018-06-24T09:39:45.787Z,12.80
2018-06-24T09:40:44.130Z,11.50
2018-06-24T09:41:44.057Z,11.90
2018-06-24T09:42:43.998Z,10.10
2018-06-24T09:43:43.937Z,6.00
2018-06-24T09:44:43.871Z,11.10
2018-06-24T09:45:43.820Z,7.50
2018-06-24T09:46:43.746Z,11.40
2018-06-24T09:47:43.689Z,12.10
2018-06-24T09:48:43.635Z,14.00
2018-06-24T09:49:43.570Z,9.90
2018-06-24T09:50:43.507Z,8.70
2018-06-24T09:51:43.440Z,8.70
2018-06-24T09:52:43.380Z,10.50
2018-06-24T09:53:43.319Z,8.40
2018-06-24T09:54:43.260Z,10.20
2018-06-24T09:55:43.190Z,9.80
2018-06-24T09:56:43.131Z,9.70
2018-06-24T09:57:43.075Z,8.70
2018-06-24T09:58:43.007Z,9.50
2018-06-24T09:59:42.949Z,11.20
2018-06-24T10:00:42.890Z,6.80
2018-06-24T10:01:42.826Z,11.70
2018-06-24T10:02:42.764Z,8.60
2018-06-24T10:03:42.701Z,8.30
2018-06-24T10:04:42.637Z,9.30
2018-06-24T10:05:42.579Z,12.60
2018-06-24T10:06:42.515Z,8.10
2018-06-24T10:07:42.465Z,10.60
2018-06-24T10:08:42.396Z,7.30
2018-06-24T10:09:42.333Z,7.50
2018-06-24T10:10:42.270Z,6.80
2018-06-24T10:11:42.220Z,5.90
2018-06-24T10:12:42.151Z,7.70
2018-06-24T10:13:42.090Z,6.80
2018-06-24T10:14:42.030Z,12.30
2018-06-24T10:15:41.973Z,7.70
2018-06-24T10:16:41.903Z,5.80
2018-06-24T10:17:41.842Z,29.80
2018-06-24T10:18:41.783Z,26.40
2018-06-24T10:19:41.722Z,28.40
2018-06-24T10:20:41.733Z,28.10
2018-06-24T10:21:41.607Z,29.80
2018-06-24T10:22:41.538Z,31.40
2018-06-24T10:23:41.475Z,43.40
2018-06-24T10:24:41.419Z,36.60
2018-06-24T10:25:41.357Z,37.20
2018-06-24T10:26:41.294Z,29.40
2018-06-24T10:27:41.241Z,21.50
2018-06-24T10:28:41.177Z,19.10
2018-06-24T10:29:41.111Z,22.80
2018-06-24T10:30:41.078Z,23.30
2018-06-24T10:31:41.097Z,29.00
2018-06-24T10:32:40.937Z,25.20
2018-06-24T10:33:40.875Z,21.10
2018-06-24T10:34:40.819Z,15.70
2018-06-24T10:35:40.743Z,21.80
2018-06-24T10:36:40.696Z,18.50
2018-06-24T10:37:40.647Z,18.00
2018-06-24T10:38:40.558Z,12.30
2018-06-24T10:39:40.512Z,13.40
2018-06-24T10:40:40.439Z,17.90
2018-06-24T10:41:40.379Z,16.40
2018-06-24T10:42:40.314Z,17.20
2018-06-24T10:43:40.254Z,23.20
2018-06-24T10:44:40.200Z,16.10
2018-06-24T10:45:40.135Z,15.60
2018-06-24T10:46:40.071Z,18.60
2018-06-24T10:47:40.011Z,12.90
2018-06-24T10:48:39.950Z,14.50
2018-06-24T10:49:39.888Z,15.50
2018-06-24T10:50:39.829Z,11.60
2018-06-24T10:51:39.768Z,19.10
2018-06-24T10:52:39.705Z,12.80
2018-06-24T10:53:39.640Z,12.10
2018-06-24T10:54:39.580Z,16.30
2018-06-24T10:55:39.520Z,16.30
2018-06-24T10:56:39.455Z,10.20
2018-06-24T10:57:39.393Z,16.50
2018-06-24T10:58:39.336Z,10.00
2018-06-24T10:59:39.274Z,10.50
2018-06-24T11:00:39.217Z,17.20
2018-06-24T11:01:39.158Z,12.70
2018-06-24T11:02:39.081Z,10.60
2018-06-24T11:03:39.032Z,9.40
2018-06-24T11:04:38.964Z,16.00
2018-06-24T11:05:38.906Z,13.10
2018-06-24T11:06:38.847Z,11.20
2018-06-24T11:07:38.775Z,8.40
2018-06-24T11:08:38.715Z,10.40
2018-06-24T11:09:38.670Z,8.90
2018-06-24T11:10:38.591Z,7.60
2018-06-24T11:11:38.532Z,9.20
2018-06-24T11:12:38.484Z,13.30
2018-06-24T11:13:38.411Z,6.80
2018-06-24T11:14:38.354Z,8.30
2018-06-24T11:15:38.302Z,7.90
2018-06-24T11:16:38.235Z,10.10
2018-06-24T11:17:38.174Z,10.20
2018-06-24T11:18:38.111Z,11.20
2018-06-24T11:19:38.062Z,10.60
2018-06-24T11:20:37.991Z,11.50
2018-06-24T11:21:37.930Z,10.90
2018-06-24T11:22:37.878Z,8.40
2018-06-24T11:23:37.814Z,9.20
2018-06-24T11:24:37.754Z,8.30
2018-06-24T11:25:37.693Z,7.50
2018-06-24T11:26:37.632Z,7.50
2018-06-24T11:27:37.572Z,7.90
2018-06-24T11:28:37.509Z,10.70
2018-06-24T11:29:37.455Z,8.30
2018-06-24T11:30:37.394Z,6.00
2018-06-24T11:31:37.347Z,8.40
2018-06-24T11:32:37.274Z,9.00
2018-06-24T11:33:37.485Z,9.30
2018-06-24T11:34:37.154Z,13.10
2018-06-24T11:35:37.096Z,7.50
2018-06-24T11:36:37.036Z,7.80
2018-06-24T11:37:36.979Z,7.70
2018-06-24T11:38:36.913Z,11.50
2018-06-24T11:39:37.823Z,8.40
2018-06-24T11:40:36.793Z,8.20
2018-06-24T11:41:36.730Z,7.90
2018-06-24T11:42:36.670Z,8.80
2018-06-24T11:43:36.611Z,6.20
2018-06-24T11:44:36.554Z,9.40
2018-06-24T11:45:36.487Z,9.50
2018-06-24T11:46:36.427Z,10.10
2018-06-24T11:47:36.363Z,7.70
2018-06-24T11:48:36.303Z,9.00
2018-06-24T11:49:36.248Z,6.30
2018-06-24T11:50:36.178Z,8.90
2018-06-24T11:51:36.118Z,7.80
2018-06-24T11:52:36.082Z,6.30
2018-06-24T11:53:35.997Z,7.40
2018-06-24T11:54:36.077Z,5.60
2018-06-24T11:55:35.875Z,4.60
2018-06-24T11:56:35.810Z,5.20
2018-06-24T11:57:35.763Z,9.10
2018-06-24T11:58:35.687Z,5.10
2018-06-24T11:59:35.881Z,4.90
2018-06-24T12:00:36.329Z,7.50
2018-06-24T12:01:35.527Z,5.40
2018-06-24T12:02:35.479Z,5.40
2018-06-24T12:03:35.381Z,5.50
2018-06-24T12:04:35.454Z,5.80
2018-06-24T12:05:35.257Z,5.60
2018-06-24T12:06:35.385Z,5.30
2018-06-24T12:07:35.142Z,5.10
2018-06-24T12:08:35.089Z,9.10
2018-06-24T12:09:35.016Z,5.70
2018-06-24T12:10:34.967Z,4.60
2018-06-24T12:11:34.886Z,6.50
2018-06-24T12:12:34.827Z,5.00
2018-06-24T12:13:34.763Z,5.10
2018-06-24T12:14:34.703Z,7.60
2018-06-24T12:15:34.694Z,7.00
2018-06-24T12:16:34.583Z,6.20
2018-06-24T12:17:35.696Z,6.40
2018-06-24T12:18:34.458Z,7.50
2018-06-24T12:19:34.396Z,4.80
2018-06-24T12:20:34.338Z,6.00
2018-06-24T12:21:34.277Z,6.40
2018-06-24T12:22:34.220Z,4.40
2018-06-24T12:23:34.148Z,8.60
2018-06-24T12:24:34.098Z,8.20
2018-06-24T12:25:34.029Z,7.40
2018-06-24T12:26:33.968Z,7.60
2018-06-24T12:27:33.947Z,5.40
2018-06-24T12:28:33.849Z,9.30
2018-06-24T12:29:33.785Z,6.90
2018-06-24T12:30:33.744Z,7.40
2018-06-24T12:31:33.660Z,8.70
2018-06-24T12:32:33.625Z,6.00
2018-06-24T12:33:33.539Z,6.50
2018-06-24T12:34:33.480Z,5.70
2018-06-24T12:35:33.414Z,5.50
2018-06-24T12:36:33.349Z,7.30
2018-06-24T12:37:33.294Z,9.60
2018-06-24T12:38:33.229Z,6.90
2018-06-24T12:39:33.170Z,6.30
2018-06-24T12:40:33.108Z,7.70
2018-06-24T12:41:33.050Z,8.10
2018-06-24T12:42:32.990Z,6.90
2018-06-24T12:43:32.966Z,5.60
2018-06-24T12:44:32.862Z,6.20
2018-06-24T12:45:32.798Z,5.90
2018-06-24T12:46:32.735Z,5.30
2018-06-24T12:47:32.677Z,4.80
2018-06-24T12:48:32.617Z,5.00
2018-06-24T12:49:32.556Z,3.90
2018-06-24T12:50:32.541Z,5.60
2018-06-24T12:51:32.434Z,6.90
2018-06-24T12:52:32.375Z,5.60
2018-06-24T12:53:32.312Z,5.40
2018-06-24T12:54:32.303Z,6.60
2018-06-24T12:55:32.187Z,6.30
2018-06-24T12:56:32.232Z,6.30
2018-06-24T12:57:32.069Z,5.50
2018-06-24T12:58:32.055Z,8.20
2018-06-24T12:59:32.020Z,8.40
2018-06-24T13:00:32.294Z,14.60
2018-06-24T13:01:31.821Z,10.40
2018-06-24T13:02:31.767Z,8.50
2018-06-24T13:03:31.701Z,7.90
2018-06-24T13:04:31.815Z,6.10
2018-06-24T13:05:31.862Z,12.50
2018-06-24T13:06:31.516Z,10.60
2018-06-24T13:07:31.450Z,10.80
2018-06-24T13:08:31.385Z,10.00
2018-06-24T13:09:31.333Z,10.60
2018-06-24T13:10:31.265Z,9.50
2018-06-24T13:11:31.205Z,9.30
2018-06-24T13:12:31.145Z,13.40
2018-06-24T13:13:31.086Z,12.10
2018-06-24T13:14:31.028Z,11.50
2018-06-24T13:15:30.958Z,10.70
2018-06-24T13:16:30.900Z,8.00
2018-06-24T13:17:30.839Z,11.60
2018-06-24T13:18:30.771Z,9.10
2018-06-24T13:19:30.716Z,8.00
2018-06-24T13:20:30.652Z,10.20
2018-06-24T13:21:30.587Z,10.00
2018-06-24T13:22:30.526Z,19.30
2018-06-24T13:23:30.504Z,16.10
2018-06-24T13:24:30.414Z,23.00
2018-06-24T13:25:30.404Z,14.60
2018-06-24T13:26:30.284Z,11.90
2018-06-24T13:27:30.220Z,14.70
2018-06-24T13:28:30.240Z,20.00
2018-06-24T13:29:30.095Z,29.10
2018-06-24T13:30:30.037Z,17.30
2018-06-24T13:31:29.986Z,16.60
2018-06-24T13:32:29.914Z,24.70
2018-06-24T13:33:29.896Z,17.00
2018-06-24T13:34:29.802Z,14.70
2018-06-24T13:35:29.729Z,18.30
2018-06-24T13:36:29.671Z,15.60
2018-06-24T13:37:29.609Z,13.60
2018-06-24T13:38:29.644Z,11.40
2018-06-24T13:39:29.493Z,13.00
2018-06-24T13:40:29.500Z,11.80
2018-06-24T13:41:29.388Z,15.30
2018-06-24T13:42:29.372Z,15.00
2018-06-24T13:43:29.283Z,12.40
2018-06-24T13:44:29.177Z,11.20
2018-06-24T13:45:29.125Z,14.90
2018-06-24T13:46:29.054Z,12.60
2018-06-24T13:47:28.991Z,12.30
2018-06-24T13:48:28.930Z,14.40
2018-06-24T13:49:28.867Z,12.70
2018-06-24T13:50:28.802Z,11.00
2018-06-24T13:51:28.748Z,10.70
2018-06-24T13:52:28.682Z,13.00
2018-06-24T13:53:28.615Z,8.70
2018-06-24T13:54:28.557Z,8.70